San Patricio, New Mexico
Current Conditions -  °F | °C
As of 3:15 PM on Sunday 23 Nov 2014 (Local Time) from KSRR Reporting Station
Few Clouds Few Clouds  
Wind Chill: 30°   Ceiling: Unl
Heat Index: 39°   Visibility: 10mi
Dew Point: 19°   Wind: 20mph
Humidity: 45%   Direction: 320°NW
Pressure: 29.86"   Gusts: 36mph
Location:  33.41°N, 105.33°W
Report Text: KSRR 232215Z AUTO 32017G31KT 10SM FEW042 04/M07 A2986 RMK AO2
Loading
Personal Weather Stations






























Interactive Weather Map New forecast layout! Learn more

10-Day Weather Forecast

Advertisements
Track Severe Weather on mobile